sensor_id;sensor_type;location;lat;lon;timestamp;pressure;altitude;pressure_sealevel;temperature;humidity
13734;BME280;43298;52.560;13.508;2023-04-09T00:02:21;102136.09;;;2.85;100.00
13734;BME280;43298;52.560;13.508;2023-04-09T00:04:46;102140.34;;;2.86;100.00
13734;BME280;43298;52.560;13.508;2023-04-09T00:07:12;102145.44;;;2.83;100.00
13734;BME280;43298;52.560;13.508;2023-04-09T00:09:38;102139.34;;;2.72;100.00
13734;BME280;43298;52.560;13.508;2023-04-09T00:12:04;102134.97;;;2.63;100.00
13734;BME280;43298;52.560;13.508;2023-04-09T00:14:30;102132.41;;;2.60;100.00
13734;BME280;43298;52.560;13.508;2023-04-09T00:16:56;102131.41;;;2.52;100.00
13734;BME280;43298;52.560;13.508;2023-04-09T00:19:21;102127.97;;;2.47;100.00
13734;BME280;43298;52.560;13.508;2023-04-09T00:21:47;102124.59;;;2.51;100.00
13734;BME280;43298;52.560;13.508;2023-04-09T00:24:13;102130.44;;;2.43;100.00
13734;BME280;43298;52.560;13.508;2023-04-09T00:26:39;102121.16;;;2.48;100.00
13734;BME280;43298;52.560;13.508;2023-04-09T00:29:05;102127.25;;;2.57;100.00
13734;BME280;43298;52.560;13.508;2023-04-09T00:31:31;102122.94;;;2.53;100.00
13734;BME280;43298;52.560;13.508;2023-04-09T00:33:57;102129.66;;;2.48;100.00
13734;BME280;43298;52.560;13.508;2023-04-09T00:36:23;102132.06;;;2.36;100.00
13734;BME280;43298;52.560;13.508;2023-04-09T00:38:52;102126.88;;;2.32;100.00
13734;BME280;43298;52.560;13.508;2023-04-09T00:41:18;102115.84;;;2.34;100.00
13734;BME280;43298;52.560;13.508;2023-04-09T00:43:44;102120.06;;;2.29;100.00
13734;BME280;43298;52.560;13.508;2023-04-09T00:46:10;102124.25;;;2.24;100.00
13734;BME280;43298;52.560;13.508;2023-04-09T00:48:36;102123.31;;;2.21;100.00
13734;BME280;43298;52.560;13.508;2023-04-09T00:51:01;102119.00;;;2.15;100.00
13734;BME280;43298;52.560;13.508;2023-04-09T00:53:27;102122.25;;;2.05;100.00
13734;BME280;43298;52.560;13.508;2023-04-09T00:55:54;102123.09;;;2.04;100.00
13734;BME280;43298;52.560;13.508;2023-04-09T00:58:20;102123.13;;;2.07;100.00
13734;BME280;43298;52.560;13.508;2023-04-09T01:00:46;102123.94;;;2.03;100.00
13734;BME280;43298;52.560;13.508;2023-04-09T01:03:12;102126.44;;;2.00;100.00
13734;BME280;43298;52.560;13.508;2023-04-09T01:06:17;102124.63;;;1.95;100.00
13734;BME280;43298;52.560;13.508;2023-04-09T01:15:13;102122.78;;;1.85;100.00
13734;BME280;43298;52.560;13.508;2023-04-09T01:18:10;102117.69;;;1.86;100.00
13734;BME280;43298;52.560;13.508;2023-04-09T01:26:10;102117.53;;;1.77;100.00
13734;BME280;43298;52.560;13.508;2023-04-09T01:28:49;102115.88;;;1.78;100.00
13734;BME280;43298;52.560;13.508;2023-04-09T01:31:19;102108.94;;;1.71;100.00
13734;BME280;43298;52.560;13.508;2023-04-09T01:33:46;102119.84;;;1.62;100.00
13734;BME280;43298;52.560;13.508;2023-04-09T01:36:13;102117.38;;;1.67;100.00
13734;BME280;43298;52.560;13.508;2023-04-09T01:38:41;102116.44;;;1.60;100.00
13734;BME280;43298;52.560;13.508;2023-04-09T01:41:13;102119.72;;;1.53;100.00
13734;BME280;43298;52.560;13.508;2023-04-09T01:43:40;102122.22;;;1.52;100.00
13734;BME280;43298;52.560;13.508;2023-04-09T01:46:07;102122.03;;;1.41;100.00
13734;BME280;43298;52.560;13.508;2023-04-09T01:48:34;102123.69;;;1.38;100.00
13734;BME280;43298;52.560;13.508;2023-04-09T01:51:00;102122.81;;;1.37;100.00
13734;BME280;43298;52.560;13.508;2023-04-09T01:53:26;102135.47;;;1.33;100.00
13734;BME280;43298;52.560;13.508;2023-04-09T01:55:59;102135.69;;;1.45;100.00
13734;BME280;43298;52.560;13.508;2023-04-09T01:58:26;102139.75;;;1.35;100.00
13734;BME280;43298;52.560;13.508;2023-04-09T02:00:59;102132.34;;;1.47;100.00
13734;BME280;43298;52.560;13.508;2023-04-09T02:03:37;102139.88;;;1.41;100.00
13734;BME280;43298;52.560;13.508;2023-04-09T02:06:08;102131.22;;;1.33;100.00
13734;BME280;43298;52.560;13.508;2023-04-09T02:08:38;102132.06;;;1.32;100.00
13734;BME280;43298;52.560;13.508;2023-04-09T02:11:07;102136.44;;;1.39;100.00
13734;BME280;43298;52.560;13.508;2023-04-09T02:13:36;102142.41;;;1.41;100.00
13734;BME280;43298;52.560;13.508;2023-04-09T02:16:06;102132.09;;;1.34;100.00
13734;BME280;43298;52.560;13.508;2023-04-09T02:18:32;102135.28;;;1.22;100.00
13734;BME280;43298;52.560;13.508;2023-04-09T02:20:59;102142.94;;;1.24;100.00
13734;BME280;43298;52.560;13.508;2023-04-09T02:23:25;102136.19;;;1.27;100.00
13734;BME280;43298;52.560;13.508;2023-04-09T02:25:52;102137.03;;;1.26;100.00
13734;BME280;43298;52.560;13.508;2023-04-09T02:28:18;102136.16;;;1.24;100.00
13734;BME280;43298;52.560;13.508;2023-04-09T02:30:44;102144.56;;;1.20;100.00
13734;BME280;43298;52.560;13.508;2023-04-09T02:33:10;102147.00;;;1.14;100.00
13734;BME280;43298;52.560;13.508;2023-04-09T02:35:36;102133.53;;;1.20;100.00
13734;BME280;43298;52.560;13.508;2023-04-09T02:38:02;102142.81;;;1.18;100.00
13734;BME280;43298;52.560;13.508;2023-04-09T02:40:27;102138.66;;;1.21;100.00
13734;BME280;43298;52.560;13.508;2023-04-09T02:42:54;102133.28;;;1.08;100.00
13734;BME280;43298;52.560;13.508;2023-04-09T02:45:19;102138.34;;;1.06;100.00
13734;BME280;43298;52.560;13.508;2023-04-09T02:47:45;102138.50;;;1.14;100.00
13734;BME280;43298;52.560;13.508;2023-04-09T02:50:12;102139.22;;;1.07;100.00
13734;BME280;43298;52.560;13.508;2023-04-09T02:52:38;102145.94;;;1.03;100.00
13734;BME280;43298;52.560;13.508;2023-04-09T02:55:04;102140.13;;;1.10;100.00
13734;BME280;43298;52.560;13.508;2023-04-09T02:57:30;102147.75;;;1.10;100.00
13734;BME280;43298;52.560;13.508;2023-04-09T02:59:58;102137.81;;;1.22;100.00
13734;BME280;43298;52.560;13.508;2023-04-09T03:02:23;102148.00;;;1.22;100.00
13734;BME280;43298;52.560;13.508;2023-04-09T03:04:49;102141.91;;;1.16;100.00
13734;BME280;43298;52.560;13.508;2023-04-09T03:07:15;102140.03;;;1.04;100.00
13734;BME280;43298;52.560;13.508;2023-04-09T03:09:41;102139.13;;;1.02;100.00
13734;BME280;43298;52.560;13.508;2023-04-09T03:12:06;102138.25;;;1.00;100.00
13734;BME280;43298;52.560;13.508;2023-04-09T03:14:32;102143.28;;;0.97;100.00
13734;BME280;43298;52.560;13.508;2023-04-09T03:16:58;102136.81;;;1.16;100.00
13734;BME280;43298;52.560;13.508;2023-04-09T03:19:24;102133.59;;;1.72;100.00
13734;BME280;43298;52.560;13.508;2023-04-09T03:21:50;102123.09;;;2.04;100.00
13734;BME280;43298;52.560;13.508;2023-04-09T03:24:16;102126.03;;;2.30;100.00
13734;BME280;43298;52.560;13.508;2023-04-09T03:26:42;102127.75;;;2.32;100.00
13734;BME280;43298;52.560;13.508;2023-04-09T03:29:07;102128.63;;;2.36;100.00
13734;BME280;43298;52.560;13.508;2023-04-09T03:31:33;102125.34;;;2.44;100.00
13734;BME280;43298;52.560;13.508;2023-04-09T03:33:59;102124.59;;;2.51;100.00
13734;BME280;43298;52.560;13.508;2023-04-09T03:36:25;102130.63;;;2.55;100.00
13734;BME280;43298;52.560;13.508;2023-04-09T03:38:52;102134.09;;;2.61;100.00
13734;BME280;43298;52.560;13.508;2023-04-09T03:41:18;102130.78;;;2.67;100.00
13734;BME280;43298;52.560;13.508;2023-04-09T03:43:44;102130.00;;;2.72;100.00
13734;BME280;43298;52.560;13.508;2023-04-09T03:46:12;102126.72;;;2.84;100.00
13734;BME280;43298;52.560;13.508;2023-04-09T03:48:38;102133.53;;;2.85;100.00
13734;BME280;43298;52.560;13.508;2023-04-09T03:51:03;102128.50;;;2.89;100.00
13734;BME280;43298;52.560;13.508;2023-04-09T03:53:29;102137.06;;;2.94;100.00
13734;BME280;43298;52.560;13.508;2023-04-09T03:55:55;102138.84;;;3.01;100.00
13734;BME280;43298;52.560;13.508;2023-04-09T03:58:21;102138.88;;;3.04;100.00
13734;BME280;43298;52.560;13.508;2023-04-09T04:00:47;102134.72;;;3.14;100.00
13734;BME280;43298;52.560;13.508;2023-04-09T04:03:13;102136.28;;;3.00;100.00
13734;BME280;43298;52.560;13.508;2023-04-09T04:05:41;102143.81;;;2.89;100.00
13734;BME280;43298;52.560;13.508;2023-04-09T04:08:07;102141.19;;;2.83;100.00
13734;BME280;43298;52.560;13.508;2023-04-09T04:10:36;102135.06;;;2.69;100.00
13734;BME280;43298;52.560;13.508;2023-04-09T04:13:01;102136.75;;;2.67;100.00
13734;BME280;43298;52.560;13.508;2023-04-09T04:15:28;102140.16;;;2.69;100.00
13734;BME280;43298;52.560;13.508;2023-04-09T04:17:54;102143.59;;;2.71;100.00
13734;BME280;43298;52.560;13.508;2023-04-09T04:20:20;102145.28;;;2.71;100.00
13734;BME280;43298;52.560;13.508;2023-04-09T04:22:46;102151.31;;;2.77;100.00
13734;BME280;43298;52.560;13.508;2023-04-09T04:25:11;102153.09;;;2.80;100.00
13734;BME280;43298;52.560;13.508;2023-04-09T04:27:41;102150.56;;;2.84;100.00
13734;BME280;43298;52.560;13.508;2023-04-09T04:30:07;102158.38;;;2.95;100.00
13734;BME280;43298;52.560;13.508;2023-04-09T04:32:33;102157.59;;;3.00;100.00
13734;BME280;43298;52.560;13.508;2023-04-09T04:34:59;102159.31;;;3.03;100.00
13734;BME280;43298;52.560;13.508;2023-04-09T04:37:25;102158.53;;;3.08;100.00
13734;BME280;43298;52.560;13.508;2023-04-09T04:39:51;102155.19;;;3.15;100.00
13734;BME280;43298;52.560;13.508;2023-04-09T04:42:17;102149.34;;;3.26;100.00
13734;BME280;43298;52.560;13.508;2023-04-09T04:44:43;102154.53;;;3.32;100.00
13734;BME280;43298;52.560;13.508;2023-04-09T04:47:09;102153.75;;;3.40;100.00
13734;BME280;43298;52.560;13.508;2023-04-09T04:49:35;102153.84;;;3.48;100.00
13734;BME280;43298;52.560;13.508;2023-04-09T04:52:01;102149.56;;;3.45;100.00
13734;BME280;43298;52.560;13.508;2023-04-09T04:54:26;102152.13;;;3.47;100.00
13734;BME280;43298;52.560;13.508;2023-04-09T04:56:52;102153.09;;;3.58;100.00
13734;BME280;43298;52.560;13.508;2023-04-09T04:59:18;102159.97;;;3.65;100.00
13734;BME280;43298;52.560;13.508;2023-04-09T05:01:44;102157.38;;;3.62;100.00
13734;BME280;43298;52.560;13.508;2023-04-09T05:04:10;102163.41;;;3.70;100.00
13734;BME280;43298;52.560;13.508;2023-04-09T05:06:35;102157.53;;;3.78;100.00
13734;BME280;43298;52.560;13.508;2023-04-09T05:09:01;102166.94;;;3.82;100.00
13734;BME280;43298;52.560;13.508;2023-04-09T05:11:27;102157.66;;;3.95;100.00
13734;BME280;43298;52.560;13.508;2023-04-09T05:13:53;102157.75;;;4.04;100.00
13734;BME280;43298;52.560;13.508;2023-04-09T05:16:19;102159.56;;;4.15;100.00
13734;BME280;43298;52.560;13.508;2023-04-09T05:18:46;102160.44;;;4.22;100.00
13734;BME280;43298;52.560;13.508;2023-04-09T05:21:12;102157.88;;;4.22;100.00
13734;BME280;43298;52.560;13.508;2023-04-09T05:23:38;102144.28;;;4.29;100.00
13734;BME280;43298;52.560;13.508;2023-04-09T05:26:04;102146.88;;;4.38;100.00
13734;BME280;43298;52.560;13.508;2023-04-09T05:28:30;102135.88;;;4.51;100.00
13734;BME280;43298;52.560;13.508;2023-04-09T05:30:55;102136.75;;;4.54;100.00
13734;BME280;43298;52.560;13.508;2023-04-09T05:33:21;102141.06;;;4.61;100.00
13734;BME280;43298;52.560;13.508;2023-04-09T05:35:47;102136.75;;;4.53;100.00
13734;BME280;43298;52.560;13.508;2023-04-09T05:38:13;102131.69;;;4.68;100.00
13734;BME280;43298;52.560;13.508;2023-04-09T05:40:39;102133.44;;;4.78;100.00
13734;BME280;43298;52.560;13.508;2023-04-09T05:43:05;102127.47;;;4.79;100.00
13734;BME280;43298;52.560;13.508;2023-04-09T05:45:30;102137.75;;;4.85;100.00
13734;BME280;43298;52.560;13.508;2023-04-09T05:47:56;102134.34;;;4.95;100.00
13734;BME280;43298;52.560;13.508;2023-04-09T05:50:22;102130.13;;;5.03;100.00
13734;BME280;43298;52.560;13.508;2023-04-09T05:52:48;102134.34;;;4.96;100.00
13734;BME280;43298;52.560;13.508;2023-04-09T05:55:13;102136.94;;;4.99;100.00
13734;BME280;43298;52.560;13.508;2023-04-09T05:57:40;102136.97;;;5.04;100.00
13734;BME280;43298;52.560;13.508;2023-04-09T06:00:07;102135.25;;;5.03;100.00
13734;BME280;43298;52.560;13.508;2023-04-09T06:02:33;102129.31;;;5.11;100.00
13734;BME280;43298;52.560;13.508;2023-04-09T06:04:58;102131.88;;;5.19;100.00
13734;BME280;43298;52.560;13.508;2023-04-09T06:07:24;102129.34;;;5.31;100.00
13734;BME280;43298;52.560;13.508;2023-04-09T06:09:50;102125.03;;;5.27;100.00
13734;BME280;43298;52.560;13.508;2023-04-09T06:12:16;102135.31;;;5.21;100.00
13734;BME280;43298;52.560;13.508;2023-04-09T06:14:42;102130.16;;;5.18;100.00
13734;BME280;43298;52.560;13.508;2023-04-09T06:17:08;102133.59;;;5.26;100.00
13734;BME280;43298;52.560;13.508;2023-04-09T06:19:33;102135.28;;;5.27;100.00
13734;BME280;43298;52.560;13.508;2023-04-09T06:21:59;102141.28;;;5.27;100.00
13734;BME280;43298;52.560;13.508;2023-04-09T06:24:25;102143.00;;;5.30;100.00
13734;BME280;43298;52.560;13.508;2023-04-09T06:26:51;102142.19;;;5.31;100.00
13734;BME280;43298;52.560;13.508;2023-04-09T06:29:17;102137.00;;;5.20;100.00
13734;BME280;43298;52.560;13.508;2023-04-09T06:31:43;102135.34;;;5.39;100.00
13734;BME280;43298;52.560;13.508;2023-04-09T06:34:09;102137.06;;;5.52;100.00
13734;BME280;43298;52.560;13.508;2023-04-09T06:36:35;102135.34;;;5.48;100.00
13734;BME280;43298;52.560;13.508;2023-04-09T06:39:02;102140.50;;;5.43;100.00
13734;BME280;43298;52.560;13.508;2023-04-09T06:41:28;102138.78;;;5.56;100.00
13734;BME280;43298;52.560;13.508;2023-04-09T06:43:53;102132.78;;;5.55;100.00
13734;BME280;43298;52.560;13.508;2023-04-09T06:46:19;102142.19;;;5.46;100.00
13734;BME280;43298;52.560;13.508;2023-04-09T06:48:45;102136.19;;;5.47;100.00
13734;BME280;43298;52.560;13.508;2023-04-09T06:51:11;102143.03;;;5.49;100.00
13734;BME280;43298;52.560;13.508;2023-04-09T06:53:38;102140.47;;;5.42;100.00
13734;BME280;43298;52.560;13.508;2023-04-09T06:56:04;102136.22;;;5.56;100.00
13734;BME280;43298;52.560;13.508;2023-04-09T06:58:30;102136.22;;;5.63;100.00
13734;BME280;43298;52.560;13.508;2023-04-09T07:00:56;102149.09;;;5.77;100.00
13734;BME280;43298;52.560;13.508;2023-04-09T07:03:22;102141.34;;;5.63;100.00
13734;BME280;43298;52.560;13.508;2023-04-09T07:05:48;102147.41;;;5.82;100.00
13734;BME280;43298;52.560;13.508;2023-04-09T07:08:14;102152.47;;;5.76;100.00
13734;BME280;43298;52.560;13.508;2023-04-09T07:10:40;102159.34;;;5.72;100.00
13734;BME280;43298;52.560;13.508;2023-04-09T07:13:06;102155.06;;;5.70;100.00
13734;BME280;43298;52.560;13.508;2023-04-09T07:15:32;102155.06;;;5.67;100.00
13734;BME280;43298;52.560;13.508;2023-04-09T07:17:58;102159.38;;;5.84;100.00
13734;BME280;43298;52.560;13.508;2023-04-09T07:20:24;102155.94;;;5.93;100.00
13734;BME280;43298;52.560;13.508;2023-04-09T07:22:49;102155.09;;;6.07;100.00
13734;BME280;43298;52.560;13.508;2023-04-09T07:25:15;102158.50;;;5.88;100.00
13734;BME280;43298;52.560;13.508;2023-04-09T07:27:41;102158.50;;;5.91;100.00
13734;BME280;43298;52.560;13.508;2023-04-09T07:30:08;102155.94;;;5.93;100.00
13734;BME280;43298;52.560;13.508;2023-04-09T07:32:35;102161.09;;;6.02;100.00
13734;BME280;43298;52.560;13.508;2023-04-09T07:35:06;102156.81;;;5.95;100.00
13734;BME280;43298;52.560;13.508;2023-04-09T07:37:32;102159.38;;;5.95;100.00
13734;BME280;43298;52.560;13.508;2023-04-09T07:39:58;102156.81;;;6.13;100.00
13734;BME280;43298;52.560;13.508;2023-04-09T07:42:24;102157.63;;;6.12;100.00
13734;BME280;43298;52.560;13.508;2023-04-09T07:44:50;102157.63;;;6.10;100.00
13734;BME280;43298;52.560;13.508;2023-04-09T07:47:16;102161.91;;;6.27;100.00
13734;BME280;43298;52.560;13.508;2023-04-09T07:49:41;102155.06;;;6.32;100.00
13734;BME280;43298;52.560;13.508;2023-04-09T07:52:07;102156.78;;;6.19;100.00
13734;BME280;43298;52.560;13.508;2023-04-09T07:54:34;102157.63;;;6.47;100.00
13734;BME280;43298;52.560;13.508;2023-04-09T07:57:00;102158.44;;;6.52;100.00
13734;BME280;43298;52.560;13.508;2023-04-09T07:59:26;102161.88;;;6.48;100.00
13734;BME280;43298;52.560;13.508;2023-04-09T08:01:52;102168.72;;;6.53;100.00
13734;BME280;43298;52.560;13.508;2023-04-09T08:04:18;102168.75;;;6.34;100.00
13734;BME280;43298;52.560;13.508;2023-04-09T08:06:44;102166.16;;;6.58;100.00
13734;BME280;43298;52.560;13.508;2023-04-09T08:09:17;102175.56;;;6.48;100.00
13734;BME280;43298;52.560;13.508;2023-04-09T08:11:43;102172.94;;;6.78;100.00
13734;BME280;43298;52.560;13.508;2023-04-09T08:14:11;102174.63;;;6.91;100.00
13734;BME280;43298;52.560;13.508;2023-04-09T08:16:42;102174.63;;;6.81;100.00
13734;BME280;43298;52.560;13.508;2023-04-09T08:19:09;102184.03;;;6.86;100.00
13734;BME280;43298;52.560;13.508;2023-04-09T08:21:39;102186.59;;;6.88;100.00
13734;BME280;43298;52.560;13.508;2023-04-09T08:24:11;102185.78;;;6.78;100.00
13734;BME280;43298;52.560;13.508;2023-04-09T08:26:38;102182.34;;;6.82;100.00
13734;BME280;43298;52.560;13.508;2023-04-09T08:29:05;102190.03;;;6.91;100.00
13734;BME280;43298;52.560;13.508;2023-04-09T08:31:31;102190.06;;;6.88;100.00
13734;BME280;43298;52.560;13.508;2023-04-09T08:33:56;102186.63;;;6.86;100.00
13734;BME280;43298;52.560;13.508;2023-04-09T08:36:22;102182.34;;;6.88;100.00
13734;BME280;43298;52.560;13.508;2023-04-09T08:38:48;102173.75;;;6.89;100.00
13734;BME280;43298;52.560;13.508;2023-04-09T08:41:23;102171.06;;;7.18;100.00
13734;BME280;43298;52.560;13.508;2023-04-09T08:43:51;102180.50;;;7.17;100.00
13734;BME280;43298;52.560;13.508;2023-04-09T08:46:20;102178.72;;;7.28;100.00
13734;BME280;43298;52.560;13.508;2023-04-09T08:48:48;102165.06;;;7.17;100.00
13734;BME280;43298;52.560;13.508;2023-04-09T08:51:21;102170.13;;;7.28;100.00
13734;BME280;43298;52.560;13.508;2023-04-09T08:53:58;102165.63;;;7.67;100.00
13734;BME280;43298;52.560;13.508;2023-04-09T08:56:24;102162.38;;;7.37;100.00
13734;BME280;43298;52.560;13.508;2023-04-09T08:58:52;102152.13;;;7.32;100.00
13734;BME280;43298;52.560;13.508;2023-04-09T09:01:26;102167.53;;;7.38;100.00
13734;BME280;43298;52.560;13.508;2023-04-09T09:04:06;102148.50;;;7.59;100.00
13734;BME280;43298;52.560;13.508;2023-04-09T09:06:35;102151.06;;;7.62;100.00
13734;BME280;43298;52.560;13.508;2023-04-09T09:09:09;102154.41;;;7.77;100.00
13734;BME280;43298;52.560;13.508;2023-04-09T09:11:37;102146.75;;;7.65;100.00
13734;BME280;43298;52.560;13.508;2023-04-09T09:14:12;102150.94;;;7.77;100.00
13734;BME280;43298;52.560;13.508;2023-04-09T09:16:40;102147.66;;;7.57;100.00
13734;BME280;43298;52.560;13.508;2023-04-09T09:19:31;102151.94;;;7.59;100.00
13734;BME280;43298;52.560;13.508;2023-04-09T09:22:05;102154.53;;;7.61;100.00
13734;BME280;43298;52.560;13.508;2023-04-09T09:24:46;102151.88;;;7.68;100.00
13734;BME280;43298;52.560;13.508;2023-04-09T09:27:34;102148.16;;;8.05;100.00
13734;BME280;43298;52.560;13.508;2023-04-09T09:30:05;102149.19;;;7.83;100.00
13734;BME280;43298;52.560;13.508;2023-04-09T09:32:35;102146.38;;;8.10;100.00
13734;BME280;43298;52.560;13.508;2023-04-09T09:35:03;102148.50;;;7.63;100.00
13734;BME280;43298;52.560;13.508;2023-04-09T09:37:29;102150.03;;;7.84;100.00
13734;BME280;43298;52.560;13.508;2023-04-09T09:39:56;102148.19;;;8.02;100.00
13734;BME280;43298;52.560;13.508;2023-04-09T09:42:22;102140.31;;;8.14;100.00
13734;BME280;43298;52.560;13.508;2023-04-09T09:44:49;102140.44;;;8.05;100.00
13734;BME280;43298;52.560;13.508;2023-04-09T09:47:17;102142.75;;;8.34;100.00
13734;BME280;43298;52.560;13.508;2023-04-09T09:49:50;102141.75;;;8.47;100.00
13734;BME280;43298;52.560;13.508;2023-04-09T09:52:24;102135.97;;;8.21;100.00
13734;BME280;43298;52.560;13.508;2023-04-09T09:54:54;102128.13;;;8.36;100.00
13734;BME280;43298;52.560;13.508;2023-04-09T09:57:24;102130.75;;;8.30;100.00
13734;BME280;43298;52.560;13.508;2023-04-09T10:00:01;102133.72;;;8.72;100.00
13734;BME280;43298;52.560;13.508;2023-04-09T10:02:32;102126.50;;;8.29;100.00
13734;BME280;43298;52.560;13.508;2023-04-09T10:05:02;102128.84;;;8.51;100.00
13734;BME280;43298;52.560;13.508;2023-04-09T10:07:29;102131.78;;;8.89;100.00
13734;BME280;43298;52.560;13.508;2023-04-09T10:09:56;102134.81;;;8.52;100.00
13734;BME280;43298;52.560;13.508;2023-04-09T10:12:24;102136.38;;;8.66;100.00
13734;BME280;43298;52.560;13.508;2023-04-09T10:14:51;102135.56;;;8.61;100.00
13734;BME280;43298;52.560;13.508;2023-04-09T10:17:18;102129.16;;;8.95;100.00
13734;BME280;43298;52.560;13.508;2023-04-09T10:19:57;102129.59;;;9.26;100.00
13734;BME280;43298;52.560;13.508;2023-04-09T10:22:26;102129.56;;;9.27;100.00
13734;BME280;43298;52.560;13.508;2023-04-09T10:24:54;102127.00;;;9.26;100.00
13734;BME280;43298;52.560;13.508;2023-04-09T10:27:20;102134.09;;;9.12;100.00
13734;BME280;43298;52.560;13.508;2023-04-09T10:29:49;102130.59;;;9.14;100.00
13734;BME280;43298;52.560;13.508;2023-04-09T10:32:21;102131.09;;;9.42;100.00
13734;BME280;43298;52.560;13.508;2023-04-09T10:34:51;102126.66;;;9.50;100.00
13734;BME280;43298;52.560;13.508;2023-04-09T10:37:22;102124.63;;;9.69;100.00
13734;BME280;43298;52.560;13.508;2023-04-09T10:39:49;102124.69;;;9.67;100.00
13734;BME280;43298;52.560;13.508;2023-04-09T10:42:38;102129.31;;;9.46;100.00
13734;BME280;43298;52.560;13.508;2023-04-09T10:45:12;102131.59;;;9.65;100.00
13734;BME280;43298;52.560;13.508;2023-04-09T10:47:41;102128.22;;;9.62;100.00
13734;BME280;43298;52.560;13.508;2023-04-09T10:50:22;102134.16;;;9.65;100.00
13734;BME280;43298;52.560;13.508;2023-04-09T10:52:54;102131.75;;;10.08;100.00
13734;BME280;43298;52.560;13.508;2023-04-09T10:55:37;102130.38;;;10.36;100.00
13734;BME280;43298;52.560;13.508;2023-04-09T10:58:10;102123.81;;;10.20;100.00
13734;BME280;43298;52.560;13.508;2023-04-09T11:00:43;102132.09;;;10.38;100.00
13734;BME280;43298;52.560;13.508;2023-04-09T11:03:21;102130.75;;;10.16;100.00
13734;BME280;43298;52.560;13.508;2023-04-09T11:08:21;102134.25;;;10.14;100.00
13734;BME280;43298;52.560;13.508;2023-04-09T11:10:47;102145.16;;;10.31;100.00
13734;BME280;43298;52.560;13.508;2023-04-09T11:13:15;102144.81;;;11.31;100.00
13734;BME280;43298;52.560;13.508;2023-04-09T11:15:42;102143.06;;;11.33;100.00
13734;BME280;43298;52.560;13.508;2023-04-09T11:18:12;102150.06;;;11.67;100.00
13734;BME280;43298;52.560;13.508;2023-04-09T11:20:39;102155.41;;;11.22;100.00
13734;BME280;43298;52.560;13.508;2023-04-09T11:23:05;102159.50;;;12.69;100.00
13734;BME280;43298;52.560;13.508;2023-04-09T11:25:32;102159.13;;;12.83;100.00
13734;BME280;43298;52.560;13.508;2023-04-09T11:28:02;102157.44;;;12.18;100.00
13734;BME280;43298;52.560;13.508;2023-04-09T11:30:28;102155.34;;;11.98;100.00
13734;BME280;43298;52.560;13.508;2023-04-09T11:32:55;102153.47;;;12.99;100.00
13734;BME280;43298;52.560;13.508;2023-04-09T11:35:21;102158.91;;;12.90;100.00
13734;BME280;43298;52.560;13.508;2023-04-09T11:37:48;102153.44;;;13.01;100.00
13734;BME280;43298;52.560;13.508;2023-04-09T11:40:22;102143.81;;;13.04;100.00
13734;BME280;43298;52.560;13.508;2023-04-09T11:42:52;102149.19;;;12.98;100.00
13734;BME280;43298;52.560;13.508;2023-04-09T11:45:24;102153.72;;;12.60;100.00
13734;BME280;43298;52.560;13.508;2023-04-09T11:47:50;102156.38;;;13.18;100.00
13734;BME280;43298;52.560;13.508;2023-04-09T11:50:18;102145.50;;;13.05;100.00
13734;BME280;43298;52.560;13.508;2023-04-09T11:52:45;102149.09;;;12.39;100.00
13734;BME280;43298;52.560;13.508;2023-04-09T11:55:12;102159.97;;;12.53;100.00
13734;BME280;43298;52.560;13.508;2023-04-09T11:57:58;102158.69;;;12.35;100.00
13734;BME280;43298;52.560;13.508;2023-04-09T12:00:28;102155.78;;;12.15;100.00
13734;BME280;43298;52.560;13.508;2023-04-09T12:03:02;102155.53;;;13.17;100.00
13734;BME280;43298;52.560;13.508;2023-04-09T12:05:31;102149.25;;;14.05;100.00
13734;BME280;43298;52.560;13.508;2023-04-09T12:07:59;102145.91;;;14.28;100.00
13734;BME280;43298;52.560;13.508;2023-04-09T12:10:35;102143.63;;;13.39;100.00
13734;BME280;43298;52.560;13.508;2023-04-09T12:13:08;102146.09;;;13.42;100.00
13734;BME280;43298;52.560;13.508;2023-04-09T12:15:39;102148.25;;;13.28;100.00
13734;BME280;43298;52.560;13.508;2023-04-09T12:18:11;102149.38;;;13.49;100.00
13734;BME280;43298;52.560;13.508;2023-04-09T12:20:39;102147.03;;;14.19;100.00
13734;BME280;43298;52.560;13.508;2023-04-09T12:23:08;102139.56;;;14.10;100.00
13734;BME280;43298;52.560;13.508;2023-04-09T12:25:44;102134.38;;;13.83;100.00
13734;BME280;43298;52.560;13.508;2023-04-09T12:28:14;102138.84;;;12.95;100.00
13734;BME280;43298;52.560;13.508;2023-04-09T12:30:43;102144.25;;;13.18;100.00
13734;BME280;43298;52.560;13.508;2023-04-09T12:33:09;102139.22;;;13.41;100.00
13734;BME280;43298;52.560;13.508;2023-04-09T12:35:35;102141.19;;;13.61;100.00
13734;BME280;43298;52.560;13.508;2023-04-09T12:38:02;102131.88;;;13.54;100.00
13734;BME280;43298;52.560;13.508;2023-04-09T12:40:29;102138.72;;;13.56;100.00
13734;BME280;43298;52.560;13.508;2023-04-09T12:42:55;102132.47;;;13.07;100.00
13734;BME280;43298;52.560;13.508;2023-04-09T12:45:21;102134.22;;;13.34;100.00
13734;BME280;43298;52.560;13.508;2023-04-09T12:47:48;102128.56;;;13.76;100.00
13734;BME280;43298;52.560;13.508;2023-04-09T12:50:14;102124.31;;;14.24;100.00
13734;BME280;43298;52.560;13.508;2023-04-09T12:52:41;102122.31;;;15.03;100.00
13734;BME280;43298;52.560;13.508;2023-04-09T12:55:08;102114.38;;;15.06;100.00
13734;BME280;43298;52.560;13.508;2023-04-09T12:57:36;102108.91;;;14.67;100.00